Time;durP1;ratioP1;P1;durP2;ratioP2;P2;SDS_P1;SDS_P2;PMS_P1;PMS_P2;Temp;Humidity;BMP_temperature;BMP_pressure;BME280_temperature;BME280_humidity;BME280_pressure;Samples;Min_cycle;Max_cycle;Signal;HPM_P1;HPM_P2
2021/07/09 00:00:58;;;;;;;;;;;;;;;;;;2116412;28;1288;-82
2021/07/09 00:02:00;;;;;;;;;;;;;;;;;;2107297;28;1161;-82
2021/07/09 00:03:02;;;;;;;;;;;;;;;;;;2107489;28;890;-83
2021/07/09 00:04:04;;;;;;;;;;;;;;;;;;2107491;28;1206;-82
2021/07/09 00:05:06;;;;;;;;;;;;;;;;;;2099012;28;1338;-82
2021/07/09 00:06:06;;;;;;;;;;;;;;;;;;2107447;28;825;-82
2021/07/09 00:07:08;;;;;;;;;;;;;;;;;;2116440;28;1107;-83
2021/07/09 00:08:08;;;;;;;;;;;;;;;;;;2116358;28;841;-82
2021/07/09 00:09:10;;;;;;;;;;;;;;;;;;2116465;28;821;-82
2021/07/09 00:10:12;;;;;;;;;;;;;;;;;;2116180;28;2005;-82
2021/07/09 00:11:13;;;;;;;;;;;;;;;;;;2107379;28;1331;-82
2021/07/09 00:12:14;;;;;;;;;;;;;;;;;;2107358;28;909;-82
2021/07/09 00:13:15;;;;;;;;;;;;;;;;;;2116293;28;1068;-82
2021/07/09 00:14:17;;;;;;;;;;;;;;;;;;2116361;28;889;-82
2021/07/09 00:15:18;;;;;;;;;;;;;;;;;;2116398;28;892;-82
2021/07/09 00:16:21;;;;;;;;;;;;;;;;;;2116363;28;941;-82
2021/07/09 00:17:21;;;;;;;;;;;;;;;;;;2116234;28;853;-82
2021/07/09 00:18:23;;;;;;;;;;;;;;;;;;2116333;28;1055;-83
2021/07/09 00:19:24;;;;;;;;;;;;;;;;;;2107163;28;1292;-82
2021/07/09 00:20:25;;;;;;;;;;;;;;;;;;2107099;28;1240;-83
2021/07/09 00:21:27;;;;;;;;;;;;;;;;;;2116249;28;889;-82
2021/07/09 00:22:29;;;;;;;;;;;;;;;;;;2116357;28;960;-82
2021/07/09 00:23:30;;;;;;;;;;;;;;;;;;2116241;28;841;-82
2021/07/09 00:24:31;;;;;;;;;;;;;;;;;;2116105;28;822;-81
2021/07/09 00:25:32;;;;;;;;;;;;;;;;;;2116308;28;850;-82
2021/07/09 00:26:34;;;;;;;;;;;;;;;;;;2116242;28;810;-82
2021/07/09 00:27:34;;;;;;;;;;;;;;;;;;2116294;28;787;-82
2021/07/09 00:28:36;;;;;;;;;;;;;;;;;;2106951;28;1297;-81
2021/07/09 00:29:37;;;;;;;;;;;;;;;;;;2107236;28;956;-81
2021/07/09 00:30:38;;;;;;;;;;;;;;;;;;2116102;28;1910;-81
2021/07/09 00:31:41;;;;;;;;;;;;;;;;;;2107095;28;921;-81
2021/07/09 00:32:41;;;;;;;;;;;;;;;;;;2107455;28;913;-80
2021/07/09 00:33:43;;;;;;;;;;;;;;;;;;2116184;28;1089;-81
2021/07/09 00:34:44;;;;;;;;;;;;;;;;;;2116231;28;795;-80
2021/07/09 00:35:45;;;;;;;;;;;;;;;;;;2116136;28;928;-81
2021/07/09 00:36:46;;;;;;;;;;;;;;;;;;2116271;28;1025;-81
2021/07/09 00:37:47;;;;;;;;;;;;;;;;;;2106994;28;1715;-81
2021/07/09 00:38:48;;;;;;;;;;;;;;;;;;2107186;28;978;-81
2021/07/09 00:39:49;;;;;;;;;;;;;;;;;;2107101;28;1516;-81
2021/07/09 00:40:50;;;;;;;;;;;;;;;;;;2098708;28;1216;-81
2021/07/09 00:41:51;;;;;;;;;;;;;;;;;;2107211;28;806;-81
2021/07/09 00:42:52;;;;;;;;;;;;;;;;;;2116201;28;1087;-82
2021/07/09 00:43:54;;;;;;;;;;;;;;;;;;2116162;28;999;-81
2021/07/09 00:44:54;;;;;;;;;;;;;;;;;;2115614;28;818;-81
2021/07/09 00:45:56;;;;;;;;;;;;;;;;;;2116021;28;798;-83
2021/07/09 00:46:58;;;;;;;;;;;;;;;;;;2116126;28;1060;-82
2021/07/09 00:47:59;;;;;;;;;;;;;;;;;;2106976;28;1188;-82
2021/07/09 00:49:00;;;;;;;;;;;;;;;;;;2098688;28;1288;-82
2021/07/09 00:50:01;;;;;;;;;;;;;;;;;;2107055;28;905;-81
2021/07/09 00:51:04;;;;;;;;;;;;;;;;;;2116126;28;1910;-83
2021/07/09 00:52:05;;;;;;;;;;;;;;;;;;2116042;28;948;-83
2021/07/09 00:53:06;;;;;;;;;;;;;;;;;;2116073;28;906;-84
2021/07/09 00:54:08;;;;;;;;;;;;;;;;;;2106979;28;1341;-83
2021/07/09 00:55:09;;;;;;;;;;;;;;;;;;2098714;28;1424;-81
2021/07/09 00:56:10;;;;;;;;;;;;;;;;;;2107032;28;913;-82
2021/07/09 00:57:11;;;;;;;;;;;;;;;;;;2106919;28;1345;-82
2021/07/09 00:58:13;;;;;;;;;;;;;;;;;;2107049;28;1064;-82
2021/07/09 00:59:21;;;;;;;;;;;;;;;;;;2116043;28;842;-83
2021/07/09 01:00:23;;;;;;;;;;;;;;;;;;2115976;28;1177;-82
2021/07/09 01:01:24;;;;;;;;;;;;;;;;;;2106864;28;1282;-82
2021/07/09 01:02:27;;;;;;;;;;;;;;;;;;2098560;28;1181;-82
2021/07/09 01:03:27;;;;;;;;;;;;;;;;;;2098805;28;1212;-82
2021/07/09 01:04:29;;;;;;;;;;;;;;;;;;2098600;28;1350;-82
2021/07/09 01:05:30;;;;;;;;;;;;;;;;;;2107057;28;922;-82
2021/07/09 01:06:31;;;;;;;;;;;;;;;;;;2106938;28;1209;-82
2021/07/09 01:07:31;;;;;;;;;;;;;;;;;;2098649;28;1343;-82
2021/07/09 01:08:33;;;;;;;;;;;;;;;;;;2106966;28;1058;-82
2021/07/09 01:09:33;;;;;;;;;;;;;;;;;;2106760;28;1318;-82
2021/07/09 01:10:35;;;;;;;;;;;;;;;;;;2098374;28;1914;-81
2021/07/09 01:11:36;;;;;;;;;;;;;;;;;;2098599;28;1170;-82
2021/07/09 01:12:38;;;;;;;;;;;;;;;;;;2106890;28;1040;-82
2021/07/09 01:13:39;;;;;;;;;;;;;;;;;;2106833;28;1186;-81
2021/07/09 01:14:40;;;;;;;;;;;;;;;;;;2107016;28;873;-82
2021/07/09 01:15:41;;;;;;;;;;;;;;;;;;2106806;28;1215;-81
2021/07/09 01:16:42;;;;;;;;;;;;;;;;;;2098649;28;1247;-81
2021/07/09 01:17:45;;;;;;;;;;;;;;;;;;2098519;28;1321;-82
2021/07/09 01:18:46;;;;;;;;;;;;;;;;;;2106994;28;858;-82
2021/07/09 01:19:47;;;;;;;;;;;;;;;;;;2106937;28;1364;-82
2021/07/09 01:20:49;;;;;;;;;;;;;;;;;;2107011;28;1205;-82
2021/07/09 01:21:49;;;;;;;;;;;;;;;;;;2115936;28;901;-82
2021/07/09 01:22:51;;;;;;;;;;;;;;;;;;2115933;28;873;-82
2021/07/09 01:23:59;;;;;;;;;;;;;;;;;;2115997;28;897;-81
2021/07/09 01:25:01;;;;;;;;;;;;;;;;;;2106930;28;1359;-82
2021/07/09 01:26:02;;;;;;;;;;;;;;;;;;2106971;28;901;-82
2021/07/09 01:27:04;;;;;;;;;;;;;;;;;;2106818;28;1260;-82
2021/07/09 01:28:06;;;;;;;;;;;;;;;;;;2098631;28;1274;-81
2021/07/09 01:29:07;;;;;;;;;;;;;;;;;;2106976;28;1143;-82
2021/07/09 01:30:10;;;;;;;;;;;;;;;;;;2106828;28;1248;-82
2021/07/09 01:31:11;;;;;;;;;;;;;;;;;;2106999;28;1937;-81
2021/07/09 01:32:12;;;;;;;;;;;;;;;;;;2106855;28;1211;-81
2021/07/09 01:33:14;;;;;;;;;;;;;;;;;;2098578;28;1352;-81
2021/07/09 01:34:14;;;;;;;;;;;;;;;;;;2106840;28;918;-81
2021/07/09 01:35:16;;;;;;;;;;;;;;;;;;2106685;28;1166;-81
2021/07/09 01:36:18;;;;;;;;;;;;;;;;;;2106996;28;914;-81
2021/07/09 01:37:19;;;;;;;;;;;;;;;;;;2115900;28;981;-81
2021/07/09 01:38:20;;;;;;;;;;;;;;;;;;2115918;28;791;-81
2021/07/09 01:39:22;;;;;;;;;;;;;;;;;;2115862;28;980;-81
2021/07/09 01:40:24;;;;;;;;;;;;;;;;;;2106819;28;1419;-81
2021/07/09 01:41:25;;;;;;;;;;;;;;;;;;2106943;28;965;-81
2021/07/09 01:42:27;;;;;;;;;;;;;;;;;;2115928;28;884;-81
2021/07/09 01:43:27;;;;;;;;;;;;;;;;;;2106715;28;1175;-81
2021/07/09 01:44:31;;;;;;;;;;;;;;;;;;2106917;28;901;-81
2021/07/09 01:45:32;;;;;;;;;;;;;;;;;;2115903;28;802;-81
2021/07/09 01:46:34;;;;;;;;;;;;;;;;;;2106719;28;1285;-82
2021/07/09 01:47:34;;;;;;;;;;;;;;;;;;2106865;28;965;-82
2021/07/09 01:48:36;;;;;;;;;;;;;;;;;;2106729;28;1383;-81
2021/07/09 01:49:52;;;;;;;;;;;;;;;;;;2106887;28;885;-81
2021/07/09 01:50:54;;;;;;;;;;;;;;;;;;2115687;28;1985;-81
2021/07/09 01:51:55;;;;;;;;;;;;;;;;;;2106732;28;1293;-80
2021/07/09 01:52:57;;;;;;;;;;;;;;;;;;2106939;28;877;-81
2021/07/09 01:53:57;;;;;;;;;;;;;;;;;;2106740;28;1267;-81
2021/07/09 01:55:00;;;;;;;;;;;;;;;;;;2106864;28;1057;-82
2021/07/09 01:56:01;;;;;;;;;;;;;;;;;;2106727;28;1200;-82
2021/07/09 01:57:03;;;;;;;;;;;;;;;;;;2107011;28;834;-81
2021/07/09 01:58:03;;;;;;;;;;;;;;;;;;2117308;28;1111;-81
2021/07/09 01:59:05;;;;;;;;;;;;;;;;;;2108321;28;1306;-81
2021/07/09 02:00:06;;;;;;;;;;;;;;;;;;2108336;28;1208;-82
2021/07/09 02:01:10;;;;;;;;;;;;;;;;;;2117617;28;682;-81
2021/07/09 02:02:11;;;;;;;;;;;;;;;;;;2108266;28;1379;-80
2021/07/09 02:03:13;;;;;;;;;;;;;;;;;;2108398;28;793;-81
2021/07/09 02:04:13;;;;;;;;;;;;;;;;;;2117396;28;913;-81
2021/07/09 02:05:15;;;;;;;;;;;;;;;;;;2117366;28;814;-82
2021/07/09 02:06:16;;;;;;;;;;;;;;;;;;2108233;28;1233;-81
2021/07/09 02:07:18;;;;;;;;;;;;;;;;;;2099937;28;1265;-82
2021/07/09 02:08:20;;;;;;;;;;;;;;;;;;2108401;28;993;-81
2021/07/09 02:09:20;;;;;;;;;;;;;;;;;;2117235;28;798;-81
2021/07/09 02:10:25;;;;;;;;;;;;;;;;;;2117366;28;1271;-82
2021/07/09 02:11:25;;;;;;;;;;;;;;;;;;2108207;28;1984;-82
2021/07/09 02:12:28;;;;;;;;;;;;;;;;;;2099811;28;1195;-81
2021/07/09 02:13:28;;;;;;;;;;;;;;;;;;2100023;28;1382;-81
2021/07/09 02:14:30;;;;;;;;;;;;;;;;;;2099883;28;1371;-82
2021/07/09 02:15:33;;;;;;;;;;;;;;;;;;2099816;28;1234;-81
2021/07/09 02:16:34;;;;;;;;;;;;;;;;;;2108556;28;786;-81
2021/07/09 02:17:35;;;;;;;;;;;;;;;;;;2117354;28;857;-82
2021/07/09 02:18:36;;;;;;;;;;;;;;;;;;2117363;28;865;-83
2021/07/09 02:19:37;;;;;;;;;;;;;;;;;;2117241;28;1084;-83
2021/07/09 02:20:39;;;;;;;;;;;;;;;;;;2117109;28;1279;-83
2021/07/09 02:21:41;;;;;;;;;;;;;;;;;;2117249;28;1022;-83
2021/07/09 02:22:43;;;;;;;;;;;;;;;;;;2108147;28;1196;-83
2021/07/09 02:23:44;;;;;;;;;;;;;;;;;;2108371;28;759;-81
2021/07/09 02:24:46;;;;;;;;;;;;;;;;;;2117170;28;971;-81
2021/07/09 02:25:49;;;;;;;;;;;;;;;;;;2117198;28;937;-81
2021/07/09 02:26:50;;;;;;;;;;;;;;;;;;2108093;28;1396;-81
2021/07/09 02:27:53;;;;;;;;;;;;;;;;;;2099964;28;1277;-81
2021/07/09 02:28:54;;;;;;;;;;;;;;;;;;2099942;28;898;-82
2021/07/09 02:29:55;;;;;;;;;;;;;;;;;;2108188;28;798;-81
2021/07/09 02:30:56;;;;;;;;;;;;;;;;;;2117168;28;1264;-81
2021/07/09 02:31:57;;;;;;;;;;;;;;;;;;2117027;28;1930;-82
2021/07/09 02:32:59;;;;;;;;;;;;;;;;;;2117189;28;846;-82
2021/07/09 02:34:00;;;;;;;;;;;;;;;;;;2108067;28;1358;-81
2021/07/09 02:35:01;;;;;;;;;;;;;;;;;;2108199;28;988;-81
2021/07/09 02:36:02;;;;;;;;;;;;;;;;;;2117162;28;937;-81
2021/07/09 02:37:04;;;;;;;;;;;;;;;;;;2108021;28;1220;-81
2021/07/09 02:38:04;;;;;;;;;;;;;;;;;;2108176;28;1047;-81
2021/07/09 02:39:06;;;;;;;;;;;;;;;;;;2107995;28;1281;-81
2021/07/09 02:40:07;;;;;;;;;;;;;;;;;;2108052;28;1165;-81
2021/07/09 02:41:10;;;;;;;;;;;;;;;;;;2108085;28;1316;-81
2021/07/09 02:42:11;;;;;;;;;;;;;;;;;;2108213;28;937;-81
2021/07/09 02:43:12;;;;;;;;;;;;;;;;;;2108003;28;1328;-81
2021/07/09 02:44:13;;;;;;;;;;;;;;;;;;2108136;28;877;-81
2021/07/09 02:45:15;;;;;;;;;;;;;;;;;;2117099;28;849;-81
2021/07/09 02:46:15;;;;;;;;;;;;;;;;;;2117140;28;936;-81
2021/07/09 02:47:17;;;;;;;;;;;;;;;;;;2117071;28;1134;-81
2021/07/09 02:48:18;;;;;;;;;;;;;;;;;;2117156;28;933;-81
2021/07/09 02:49:20;;;;;;;;;;;;;;;;;;2117109;28;889;-81
2021/07/09 02:50:21;;;;;;;;;;;;;;;;;;2117004;28;1204;-81
2021/07/09 02:51:23;;;;;;;;;;;;;;;;;;2107769;28;1964;-81
2021/07/09 02:52:23;;;;;;;;;;;;;;;;;;2108069;28;806;-81
2021/07/09 02:53:25;;;;;;;;;;;;;;;;;;2107897;28;1215;-81
2021/07/09 02:54:25;;;;;;;;;;;;;;;;;;2099563;28;1299;-81
2021/07/09 02:55:27;;;;;;;;;;;;;;;;;;2099439;28;1287;-81
2021/07/09 02:56:29;;;;;;;;;;;;;;;;;;2107956;28;913;-81
2021/07/09 02:57:30;;;;;;;;;;;;;;;;;;2116966;28;1112;-81
2021/07/09 02:58:31;;;;;;;;;;;;;;;;;;2116942;28;1068;-81
2021/07/09 02:59:33;;;;;;;;;;;;;;;;;;2107730;28;1338;-81
2021/07/09 03:00:33;;;;;;;;;;;;;;;;;;2107825;28;1231;-81
2021/07/09 03:01:40;;;;;;;;;;;;;;;;;;2116412;28;881;-81
2021/07/09 03:02:41;;;;;;;;;;;;;;;;;;2117063;28;631;-81
2021/07/09 03:03:42;;;;;;;;;;;;;;;;;;2107869;28;1371;-81
2021/07/09 03:04:43;;;;;;;;;;;;;;;;;;2107884;28;807;-81
2021/07/09 03:05:44;;;;;;;;;;;;;;;;;;2116993;28;887;-83
2021/07/09 03:06:45;;;;;;;;;;;;;;;;;;2116853;28;909;-83
2021/07/09 03:07:47;;;;;;;;;;;;;;;;;;2107447;28;1199;-83
2021/07/09 03:08:47;;;;;;;;;;;;;;;;;;2099389;28;1260;-83
2021/07/09 03:09:49;;;;;;;;;;;;;;;;;;2107810;28;1503;-83
2021/07/09 03:10:49;;;;;;;;;;;;;;;;;;2116880;28;1315;-83
2021/07/09 03:11:52;;;;;;;;;;;;;;;;;;2107728;28;1981;-83
2021/07/09 03:12:53;;;;;;;;;;;;;;;;;;2108031;28;917;-83
2021/07/09 03:13:54;;;;;;;;;;;;;;;;;;2107706;28;1184;-83
2021/07/09 03:14:55;;;;;;;;;;;;;;;;;;2099264;28;1337;-83
2021/07/09 03:15:56;;;;;;;;;;;;;;;;;;2107752;28;849;-83
2021/07/09 03:16:57;;;;;;;;;;;;;;;;;;2116789;28;1056;-83
2021/07/09 03:17:58;;;;;;;;;;;;;;;;;;2116905;28;882;-83
2021/07/09 03:18:59;;;;;;;;;;;;;;;;;;2116842;28;874;-83
2021/07/09 03:20:01;;;;;;;;;;;;;;;;;;2107487;28;1379;-83
2021/07/09 03:21:01;;;;;;;;;;;;;;;;;;2107744;28;1236;-83
2021/07/09 03:22:03;;;;;;;;;;;;;;;;;;2107575;28;1195;-83
2021/07/09 03:23:04;;;;;;;;;;;;;;;;;;2107896;28;775;-82
2021/07/09 03:24:06;;;;;;;;;;;;;;;;;;2116698;28;898;-82
2021/07/09 03:25:08;;;;;;;;;;;;;;;;;;2116744;28;1005;-81
2021/07/09 03:26:10;;;;;;;;;;;;;;;;;;2116673;28;945;-81
2021/07/09 03:27:11;;;;;;;;;;;;;;;;;;2116827;28;944;-81
2021/07/09 03:28:13;;;;;;;;;;;;;;;;;;2116773;28;937;-82
2021/07/09 03:29:14;;;;;;;;;;;;;;;;;;2107665;28;1201;-82
2021/07/09 03:30:15;;;;;;;;;;;;;;;;;;2107653;28;1248;-83
2021/07/09 03:31:17;;;;;;;;;;;;;;;;;;2116782;28;913;-83
2021/07/09 03:32:17;;;;;;;;;;;;;;;;;;2107532;28;1898;-83
2021/07/09 03:33:19;;;;;;;;;;;;;;;;;;2107657;28;991;-83
2021/07/09 03:34:19;;;;;;;;;;;;;;;;;;2107532;28;1333;-83
2021/07/09 03:35:21;;;;;;;;;;;;;;;;;;2099220;28;1427;-83
2021/07/09 03:36:24;;;;;;;;;;;;;;;;;;2099242;28;1300;-82
2021/07/09 03:37:25;;;;;;;;;;;;;;;;;;2099385;28;1358;-82
2021/07/09 03:38:26;;;;;;;;;;;;;;;;;;2099088;28;1350;-83
2021/07/09 03:39:27;;;;;;;;;;;;;;;;;;2107543;28;1139;-82
2021/07/09 03:40:28;;;;;;;;;;;;;;;;;;2099028;28;1344;-83
2021/07/09 03:41:29;;;;;;;;;;;;;;;;;;2107672;28;894;-84
2021/07/09 03:42:32;;;;;;;;;;;;;;;;;;2107549;28;1188;-83
2021/07/09 03:43:33;;;;;;;;;;;;;;;;;;2107744;28;925;-81
2021/07/09 03:44:34;;;;;;;;;;;;;;;;;;2107537;28;1282;-82
2021/07/09 03:45:34;;;;;;;;;;;;;;;;;;2107632;28;953;-81
2021/07/09 03:46:36;;;;;;;;;;;;;;;;;;2116525;28;961;-82
2021/07/09 03:47:37;;;;;;;;;;;;;;;;;;2107468;28;1197;-81
2021/07/09 03:48:38;;;;;;;;;;;;;;;;;;2099174;28;882;-81
2021/07/09 03:49:39;;;;;;;;;;;;;;;;;;2099023;28;1309;-82
2021/07/09 03:50:40;;;;;;;;;;;;;;;;;;2099038;28;1303;-83
2021/07/09 03:51:41;;;;;;;;;;;;;;;;;;2099123;28;1918;-83
2021/07/09 03:52:43;;;;;;;;;;;;;;;;;;2099041;28;885;-83
2021/07/09 03:53:43;;;;;;;;;;;;;;;;;;2107601;28;952;-83
2021/07/09 03:54:45;;;;;;;;;;;;;;;;;;2107507;28;1212;-83
2021/07/09 03:55:45;;;;;;;;;;;;;;;;;;2107664;28;953;-84
2021/07/09 03:56:47;;;;;;;;;;;;;;;;;;2107364;28;1305;-82
2021/07/09 03:57:49;;;;;;;;;;;;;;;;;;2098856;28;1339;-82
2021/07/09 03:58:50;;;;;;;;;;;;;;;;;;2107365;28;1025;-82
2021/07/09 03:59:51;;;;;;;;;;;;;;;;;;2116549;28;929;-82
2021/07/09 04:00:52;;;;;;;;;;;;;;;;;;2116369;28;1193;-83
2021/07/09 04:01:53;;;;;;;;;;;;;;;;;;2107206;28;1307;-82
2021/07/09 04:02:54;;;;;;;;;;;;;;;;;;2098974;28;1245;-82
2021/07/09 04:03:55;;;;;;;;;;;;;;;;;;2098970;28;1369;-82
2021/07/09 04:04:56;;;;;;;;;;;;;;;;;;2098934;28;1438;-82
2021/07/09 04:05:56;;;;;;;;;;;;;;;;;;2107445;28;791;-82
2021/07/09 04:06:58;;;;;;;;;;;;;;;;;;2116320;28;917;-82
2021/07/09 04:07:59;;;;;;;;;;;;;;;;;;2116472;28;941;-81
2021/07/09 04:09:00;;;;;;;;;;;;;;;;;;2107363;28;1305;-82
2021/07/09 04:10:01;;;;;;;;;;;;;;;;;;2107409;28;850;-82
2021/07/09 04:11:02;;;;;;;;;;;;;;;;;;2116271;28;1596;-82
2021/07/09 04:12:03;;;;;;;;;;;;;;;;;;2116371;28;1902;-82
2021/07/09 04:13:06;;;;;;;;;;;;;;;;;;2107299;28;1344;-81
2021/07/09 04:14:06;;;;;;;;;;;;;;;;;;2107292;28;890;-81
2021/07/09 04:15:08;;;;;;;;;;;;;;;;;;2116436;28;908;-81
2021/07/09 04:16:09;;;;;;;;;;;;;;;;;;2116350;28;1146;-81
2021/07/09 04:17:10;;;;;;;;;;;;;;;;;;2116351;28;1036;-81
2021/07/09 04:18:11;;;;;;;;;;;;;;;;;;2116386;28;969;-81
2021/07/09 04:19:12;;;;;;;;;;;;;;;;;;2116227;28;818;-81
2021/07/09 04:20:13;;;;;;;;;;;;;;;;;;2115628;28;1205;-81
2021/07/09 04:21:15;;;;;;;;;;;;;;;;;;2116295;28;817;-81
2021/07/09 04:22:15;;;;;;;;;;;;;;;;;;2107222;28;894;-81
2021/07/09 04:23:17;;;;;;;;;;;;;;;;;;2107339;28;814;-81
2021/07/09 04:24:17;;;;;;;;;;;;;;;;;;2116195;28;941;-81
2021/07/09 04:25:19;;;;;;;;;;;;;;;;;;2116183;28;857;-81
2021/07/09 04:26:19;;;;;;;;;;;;;;;;;;2116265;28;763;-82
2021/07/09 04:27:21;;;;;;;;;;;;;;;;;;2116308;28;791;-81
2021/07/09 04:28:23;;;;;;;;;;;;;;;;;;2116133;28;886;-81
2021/07/09 04:29:24;;;;;;;;;;;;;;;;;;2116176;28;957;-80
2021/07/09 04:30:25;;;;;;;;;;;;;;;;;;2116111;28;1220;-81
2021/07/09 04:31:26;;;;;;;;;;;;;;;;;;2116192;28;972;-81
2021/07/09 04:32:27;;;;;;;;;;;;;;;;;;2116201;28;1905;-82
2021/07/09 04:33:28;;;;;;;;;;;;;;;;;;2116105;28;805;-81
2021/07/09 04:34:29;;;;;;;;;;;;;;;;;;2116094;28;992;-81
2021/07/09 04:35:30;;;;;;;;;;;;;;;;;;2116290;28;846;-82
2021/07/09 04:36:31;;;;;;;;;;;;;;;;;;2116290;28;783;-83
2021/07/09 04:37:32;;;;;;;;;;;;;;;;;;2107113;28;1178;-83
2021/07/09 04:38:33;;;;;;;;;;;;;;;;;;2107158;28;948;-82
2021/07/09 04:39:34;;;;;;;;;;;;;;;;;;2116141;28;1135;-83
2021/07/09 04:40:35;;;;;;;;;;;;;;;;;;2107006;28;1286;-82
2021/07/09 04:41:36;;;;;;;;;;;;;;;;;;2107121;28;886;-82
2021/07/09 04:42:37;;;;;;;;;;;;;;;;;;2116177;28;988;-82
2021/07/09 04:43:40;;;;;;;;;;;;;;;;;;2116280;28;881;-83
2021/07/09 04:44:40;;;;;;;;;;;;;;;;;;2114470;28;1756;-82
2021/07/09 04:45:42;;;;;;;;;;;;;;;;;;2109025;28;870;-81
2021/07/09 04:46:42;;;;;;;;;;;;;;;;;;2115691;28;1005;-81
2021/07/09 04:47:44;;;;;;;;;;;;;;;;;;2098585;28;822;-81
2021/07/09 04:48:45;;;;;;;;;;;;;;;;;;2098711;28;791;-81
2021/07/09 04:49:46;;;;;;;;;;;;;;;;;;2098595;28;1181;-82
2021/07/09 04:50:47;;;;;;;;;;;;;;;;;;2090089;28;1482;-81
2021/07/09 04:51:48;;;;;;;;;;;;;;;;;;2098752;28;925;-81
2021/07/09 04:52:49;;;;;;;;;;;;;;;;;;2107565;28;1976;-81
2021/07/09 04:53:50;;;;;;;;;;;;;;;;;;2107675;28;862;-81
2021/07/09 04:54:51;;;;;;;;;;;;;;;;;;2107641;28;906;-81
2021/07/09 04:55:52;;;;;;;;;;;;;;;;;;2107708;28;909;-81
2021/07/09 04:56:53;;;;;;;;;;;;;;;;;;2107602;28;992;-80
2021/07/09 04:57:54;;;;;;;;;;;;;;;;;;2107420;28;1450;-79
2021/07/09 04:58:57;;;;;;;;;;;;;;;;;;2107643;28;1009;-81
2021/07/09 04:59:58;;;;;;;;;;;;;;;;;;2107504;28;811;-81
2021/07/09 05:00:59;;;;;;;;;;;;;;;;;;2107443;28;1189;-80
2021/07/09 05:02:00;;;;;;;;;;;;;;;;;;2098363;28;1181;-81
2021/07/09 05:03:01;;;;;;;;;;;;;;;;;;2098674;28;906;-81
2021/07/09 05:04:04;;;;;;;;;;;;;;;;;;2107563;28;944;-80
2021/07/09 05:05:05;;;;;;;;;;;;;;;;;;2107635;28;870;-81
2021/07/09 05:06:07;;;;;;;;;;;;;;;;;;2107614;28;1169;-81
2021/07/09 05:07:07;;;;;;;;;;;;;;;;;;2098625;28;1265;-81
2021/07/09 05:08:09;;;;;;;;;;;;;;;;;;2090243;28;1206;-81
2021/07/09 05:09:09;;;;;;;;;;;;;;;;;;2090421;28;1393;-80
2021/07/09 05:10:11;;;;;;;;;;;;;;;;;;2090157;28;1262;-81
2021/07/09 05:11:12;;;;;;;;;;;;;;;;;;2098505;28;1316;-84
2021/07/09 05:12:13;;;;;;;;;;;;;;;;;;2098298;28;1983;-82
2021/07/09 05:13:14;;;;;;;;;;;;;;;;;;2098789;28;878;-82
2021/07/09 05:14:17;;;;;;;;;;;;;;;;;;2098565;28;1437;-86
2021/07/09 05:15:17;;;;;;;;;;;;;;;;;;2098760;28;973;-81
2021/07/09 05:16:19;;;;;;;;;;;;;;;;;;2107544;28;771;-87
2021/07/09 05:17:21;;;;;;;;;;;;;;;;;;2107686;28;819;-82
2021/07/09 05:18:21;;;;;;;;;;;;;;;;;;2107554;28;902;-82
2021/07/09 05:19:23;;;;;;;;;;;;;;;;;;2098564;28;1211;-83
2021/07/09 05:20:23;;;;;;;;;;;;;;;;;;2098305;28;1252;-82
2021/07/09 05:21:26;;;;;;;;;;;;;;;;;;2098495;28;1289;-82
2021/07/09 05:22:26;;;;;;;;;;;;;;;;;;2106908;28;1077;-81
2021/07/09 05:23:27;;;;;;;;;;;;;;;;;;2107542;28;894;-77
2021/07/09 05:24:28;;;;;;;;;;;;;;;;;;2107454;28;1069;-76
2021/07/09 05:25:30;;;;;;;;;;;;;;;;;;2107755;28;877;-82
2021/07/09 05:26:30;;;;;;;;;;;;;;;;;;2107603;28;942;-83
2021/07/09 05:27:32;;;;;;;;;;;;;;;;;;2098456;28;1356;-82
2021/07/09 05:28:32;;;;;;;;;;;;;;;;;;2098620;28;803;-82
2021/07/09 05:29:35;;;;;;;;;;;;;;;;;;2107777;28;1080;-82
2021/07/09 05:30:36;;;;;;;;;;;;;;;;;;2107545;28;1311;-83
2021/07/09 05:31:38;;;;;;;;;;;;;;;;;;2108937;28;870;-78
2021/07/09 05:32:40;;;;;;;;;;;;;;;;;;2109099;28;1898;-78
2021/07/09 05:33:41;;;;;;;;;;;;;;;;;;2109295;28;806;-80
2021/07/09 05:34:42;;;;;;;;;;;;;;;;;;2109196;28;885;-79
2021/07/09 05:35:44;;;;;;;;;;;;;;;;;;2109262;28;791;-80
2021/07/09 05:36:45;;;;;;;;;;;;;;;;;;2100072;28;1355;-79
2021/07/09 05:37:46;;;;;;;;;;;;;;;;;;2100141;28;936;-79
2021/07/09 05:38:48;;;;;;;;;;;;;;;;;;2109076;28;878;-79
2021/07/09 05:39:48;;;;;;;;;;;;;;;;;;2109141;28;811;-79
2021/07/09 05:40:50;;;;;;;;;;;;;;;;;;2108950;28;1220;-79
2021/07/09 05:41:51;;;;;;;;;;;;;;;;;;2100112;28;1338;-79
2021/07/09 05:42:52;;;;;;;;;;;;;;;;;;2100143;28;913;-79
2021/07/09 05:43:53;;;;;;;;;;;;;;;;;;2109160;28;873;-79
2021/07/09 05:44:55;;;;;;;;;;;;;;;;;;2109202;28;837;-80
2021/07/09 05:45:56;;;;;;;;;;;;;;;;;;2109137;28;972;-80
2021/07/09 05:46:58;;;;;;;;;;;;;;;;;;2099835;28;893;-81
2021/07/09 05:47:58;;;;;;;;;;;;;;;;;;2100243;28;941;-81
2021/07/09 05:49:00;;;;;;;;;;;;;;;;;;2109062;28;783;-80
2021/07/09 05:50:00;;;;;;;;;;;;;;;;;;2109089;28;933;-81
2021/07/09 05:51:02;;;;;;;;;;;;;;;;;;2109030;28;1197;-81
2021/07/09 05:52:03;;;;;;;;;;;;;;;;;;2109065;28;807;-81
2021/07/09 05:53:04;;;;;;;;;;;;;;;;;;2099929;28;1898;-81
2021/07/09 05:54:05;;;;;;;;;;;;;;;;;;2100666;28;1285;-81
2021/07/09 05:55:07;;;;;;;;;;;;;;;;;;2099765;28;1142;-81
2021/07/09 05:56:07;;;;;;;;;;;;;;;;;;2101259;28;1030;-82
2021/07/09 05:57:09;;;;;;;;;;;;;;;;;;2108668;28;845;-81
2021/07/09 05:58:09;;;;;;;;;;;;;;;;;;2099681;28;1273;-81
2021/07/09 05:59:10;;;;;;;;;;;;;;;;;;2091536;28;1194;-83
2021/07/09 06:00:13;;;;;;;;;;;;;;;;;;2099792;28;1248;-82
2021/07/09 06:01:14;;;;;;;;;;;;;;;;;;2108762;28;1111;-82
2021/07/09 06:02:15;;;;;;;;;;;;;;;;;;2099744;28;1351;-82
2021/07/09 06:03:16;;;;;;;;;;;;;;;;;;2099629;28;1373;-81
2021/07/09 06:04:17;;;;;;;;;;;;;;;;;;2099889;28;991;-82
2021/07/09 06:05:18;;;;;;;;;;;;;;;;;;2099737;28;1249;-82
2021/07/09 06:06:20;;;;;;;;;;;;;;;;;;2099722;28;981;-82
2021/07/09 06:07:20;;;;;;;;;;;;;;;;;;2099772;28;1206;-84
2021/07/09 06:08:22;;;;;;;;;;;;;;;;;;2099789;28;961;-82
2021/07/09 06:09:23;;;;;;;;;;;;;;;;;;2108831;28;1487;-82
2021/07/09 06:10:25;;;;;;;;;;;;;;;;;;2099598;28;1449;-80
2021/07/09 06:11:27;;;;;;;;;;;;;;;;;;2099828;28;976;-84
2021/07/09 06:12:28;;;;;;;;;;;;;;;;;;2108656;28;1913;-81
2021/07/09 06:13:29;;;;;;;;;;;;;;;;;;2099659;28;1282;-80
2021/07/09 06:14:31;;;;;;;;;;;;;;;;;;2099707;28;944;-80
2021/07/09 06:15:33;;;;;;;;;;;;;;;;;;2108607;28;1060;-80
2021/07/09 06:16:34;;;;;;;;;;;;;;;;;;2108758;28;909;-80
2021/07/09 06:17:35;;;;;;;;;;;;;;;;;;2108667;28;937;-80
2021/07/09 06:18:36;;;;;;;;;;;;;;;;;;2099770;28;1235;-80
2021/07/09 06:19:37;;;;;;;;;;;;;;;;;;2099815;28;926;-80
2021/07/09 06:20:38;;;;;;;;;;;;;;;;;;2099639;28;1302;-81
2021/07/09 06:21:39;;;;;;;;;;;;;;;;;;2099797;28;886;-80
2021/07/09 06:22:40;;;;;;;;;;;;;;;;;;2108675;28;890;-80
2021/07/09 06:23:41;;;;;;;;;;;;;;;;;;2108638;28;933;-80
2021/07/09 06:24:43;;;;;;;;;;;;;;;;;;2108730;28;1047;-80
2021/07/09 06:25:43;;;;;;;;;;;;;;;;;;2108601;28;894;-80
2021/07/09 06:26:45;;;;;;;;;;;;;;;;;;2108610;28;866;-80
2021/07/09 06:27:47;;;;;;;;;;;;;;;;;;2099718;28;1415;-80
2021/07/09 06:28:48;;;;;;;;;;;;;;;;;;2099806;28;1096;-80
2021/07/09 06:29:49;;;;;;;;;;;;;;;;;;2108683;28;890;-80
2021/07/09 06:30:52;;;;;;;;;;;;;;;;;;2108663;28;1240;-80
2021/07/09 06:31:53;;;;;;;;;;;;;;;;;;2108650;28;1075;-80
2021/07/09 06:32:54;;;;;;;;;;;;;;;;;;2108517;28;1914;-80
2021/07/09 06:33:55;;;;;;;;;;;;;;;;;;2108577;28;862;-80
2021/07/09 06:34:56;;;;;;;;;;;;;;;;;;2108478;28;1045;-80
2021/07/09 06:35:57;;;;;;;;;;;;;;;;;;2099650;28;1308;-80
2021/07/09 06:36:58;;;;;;;;;;;;;;;;;;2091281;28;1313;-80
2021/07/09 06:37:59;;;;;;;;;;;;;;;;;;2099806;28;960;-80
2021/07/09 06:39:01;;;;;;;;;;;;;;;;;;2108609;28;897;-80
2021/07/09 06:40:02;;;;;;;;;;;;;;;;;;2108582;28;976;-80
2021/07/09 06:41:03;;;;;;;;;;;;;;;;;;2099472;28;1240;-80
2021/07/09 06:42:04;;;;;;;;;;;;;;;;;;2099558;28;881;-80
2021/07/09 06:43:05;;;;;;;;;;;;;;;;;;2107650;28;850;-80
2021/07/09 06:44:06;;;;;;;;;;;;;;;;;;2108537;28;1023;-80
2021/07/09 06:45:08;;;;;;;;;;;;;;;;;;2099447;28;1282;-80
2021/07/09 06:46:10;;;;;;;;;;;;;;;;;;2091298;28;1272;-80
2021/07/09 06:47:12;;;;;;;;;;;;;;;;;;2091419;28;1378;-80
2021/07/09 06:48:12;;;;;;;;;;;;;;;;;;2099604;28;819;-80
2021/07/09 06:49:15;;;;;;;;;;;;;;;;;;2099389;28;1475;-80
2021/07/09 06:50:16;;;;;;;;;;;;;;;;;;2091233;28;1248;-80
2021/07/09 06:51:17;;;;;;;;;;;;;;;;;;2099398;28;846;-81
2021/07/09 06:52:17;;;;;;;;;;;;;;;;;;2108394;28;940;-80
2021/07/09 06:53:19;;;;;;;;;;;;;;;;;;2108306;28;1969;-80
2021/07/09 06:54:19;;;;;;;;;;;;;;;;;;2108509;28;906;-80
2021/07/09 06:55:21;;;;;;;;;;;;;;;;;;2099375;28;1215;-80
2021/07/09 06:56:21;;;;;;;;;;;;;;;;;;2099600;28;968;-81
2021/07/09 06:57:23;;;;;;;;;;;;;;;;;;2108248;28;1060;-80
2021/07/09 06:58:24;;;;;;;;;;;;;;;;;;2108414;28;1085;-80
2021/07/09 06:59:25;;;;;;;;;;;;;;;;;;2108451;28;956;-81
2021/07/09 07:00:26;;;;;;;;;;;;;;;;;;2108264;28;1212;-80
2021/07/09 07:01:29;;;;;;;;;;;;;;;;;;2108454;28;1004;-80
2021/07/09 07:02:30;;;;;;;;;;;;;;;;;;2108359;28;775;-80
2021/07/09 07:03:31;;;;;;;;;;;;;;;;;;2099280;28;1164;-80
2021/07/09 07:04:32;;;;;;;;;;;;;;;;;;2099489;28;830;-80
2021/07/09 07:05:33;;;;;;;;;;;;;;;;;;2108269;28;949;-80
2021/07/09 07:06:34;;;;;;;;;;;;;;;;;;2099368;28;1195;-80
2021/07/09 07:07:35;;;;;;;;;;;;;;;;;;2091085;28;1249;-80
2021/07/09 07:08:36;;;;;;;;;;;;;;;;;;2090876;28;1178;-81
2021/07/09 07:09:38;;;;;;;;;;;;;;;;;;2099219;28;926;-80